createdAt,value
2019-04-07T00:00:01.325Z,101029.15
2019-04-07T00:02:40.735Z,101035.36
2019-04-07T00:05:18.345Z,101036.13
2019-04-07T00:07:55.703Z,101044.28
2019-04-07T00:10:33.418Z,101047.00
2019-04-07T00:13:11.464Z,101052.98
2019-04-07T00:15:48.922Z,101061.11
2019-04-07T00:18:28.814Z,101063.27
2019-04-07T00:21:07.685Z,101068.52
2019-04-07T00:23:46.410Z,101072.78
2019-04-07T00:26:25.334Z,101077.09
2019-04-07T00:29:03.228Z,101078.19
2019-04-07T00:31:41.643Z,101074.28
2019-04-07T00:34:19.454Z,101073.47
2019-04-07T00:36:57.261Z,101083.72
2019-04-07T00:39:35.527Z,101080.36
2019-04-07T00:42:14.742Z,101089.78
2019-04-07T00:44:53.481Z,101093.25
2019-04-07T00:47:31.195Z,101098.02
2019-04-07T00:50:08.999Z,101108.67
2019-04-07T00:52:46.623Z,101111.25
2019-04-07T00:55:24.429Z,101120.48
2019-04-07T00:58:03.670Z,101129.42
2019-04-07T01:00:41.542Z,101128.14
2019-04-07T01:03:19.501Z,101137.77
2019-04-07T01:05:57.590Z,101143.13
2019-04-07T01:08:35.191Z,101148.86
2019-04-07T01:11:12.286Z,101158.59
2019-04-07T01:13:50.731Z,101155.91
2019-04-07T01:16:30.080Z,101148.83
2019-04-07T01:19:08.837Z,101154.23
2019-04-07T01:21:46.897Z,101158.81
2019-04-07T01:24:25.350Z,101157.15
2019-04-07T01:27:03.939Z,101163.13
2019-04-07T01:29:43.088Z,101169.23
2019-04-07T01:32:20.443Z,101172.95
2019-04-07T01:34:59.621Z,101173.88
2019-04-07T01:37:38.285Z,101176.56
2019-04-07T01:40:16.703Z,101179.04
2019-04-07T01:43:12.843Z,101179.98
2019-04-07T01:46:14.233Z,101181.76
2019-04-07T01:49:11.014Z,101175.22
2019-04-07T01:52:13.533Z,101182.14
2019-04-07T01:54:56.901Z,101183.84
2019-04-07T01:57:52.190Z,101183.84
2019-04-07T02:00:50.535Z,101187.80
2019-04-07T02:03:46.297Z,101190.16
2019-04-07T02:06:34.919Z,101189.41
2019-04-07T02:09:33.714Z,101195.30
2019-04-07T02:12:30.200Z,101197.41
2019-04-07T02:15:25.187Z,101196.20
2019-04-07T02:18:08.039Z,101201.66
2019-04-07T02:21:04.472Z,101196.64
2019-04-07T02:24:10.353Z,101193.17
2019-04-07T02:27:07.625Z,101197.43
2019-04-07T02:30:01.185Z,101198.70
2019-04-07T02:33:14.885Z,101203.63
2019-04-07T02:36:17.816Z,101203.44
2019-04-07T02:39:09.138Z,101210.99
2019-04-07T02:42:10.982Z,101213.77
2019-04-07T02:45:03.228Z,101220.31
2019-04-07T02:48:03.111Z,101215.17
2019-04-07T02:50:57.244Z,101216.41
2019-04-07T02:53:51.886Z,101218.62
2019-04-07T02:56:42.337Z,101216.45
2019-04-07T02:59:48.422Z,101216.36
2019-04-07T03:02:43.870Z,101217.58
2019-04-07T03:05:45.595Z,101214.36
2019-04-07T03:08:54.077Z,101214.83
2019-04-07T03:12:00.355Z,101212.58
2019-04-07T03:14:55.871Z,101223.41
2019-04-07T03:17:52.106Z,101221.61
2019-04-07T03:20:37.834Z,101222.66
2019-04-07T03:23:32.094Z,101222.36
2019-04-07T03:26:26.134Z,101214.08
2019-04-07T03:29:31.498Z,101215.03
2019-04-07T03:32:24.088Z,101207.13
2019-04-07T03:35:20.176Z,101201.42
2019-04-07T03:38:19.241Z,101195.11
2019-04-07T03:41:09.874Z,101194.25
2019-04-07T03:43:59.841Z,101188.94
2019-04-07T03:46:43.992Z,101203.09
2019-04-07T03:49:57.034Z,101197.28
2019-04-07T03:52:49.632Z,101195.87
2019-04-07T04:06:39.037Z,101170.42
2019-04-07T04:24:53.693Z,101149.56
2019-04-07T04:27:35.050Z,101147.78
2019-04-07T04:30:13.895Z,101141.86
2019-04-07T04:32:52.229Z,101134.22
2019-04-07T04:35:30.961Z,101136.45
2019-04-07T04:38:13.111Z,101134.58
2019-04-07T04:40:52.825Z,101132.59
2019-04-07T04:43:31.835Z,101128.81
2019-04-07T04:46:13.341Z,101117.14
2019-04-07T04:49:52.661Z,101123.22
2019-04-07T04:53:09.327Z,101119.53
2019-04-07T04:55:51.640Z,101118.64
2019-04-07T04:58:38.065Z,101116.13
2019-04-07T09:14:27.236Z,100743.08
2019-04-07T09:17:45.771Z,100743.91
2019-04-07T09:20:40.284Z,100745.39
2019-04-07T09:23:38.803Z,100757.48
2019-04-07T09:26:28.508Z,100767.50
2019-04-07T09:29:26.129Z,100766.16
2019-04-07T09:32:33.668Z,100768.97
2019-04-07T09:36:04.792Z,100770.55
2019-04-07T09:46:20.243Z,100745.02
2019-04-07T09:49:23.563Z,100726.77
2019-04-07T09:52:11.776Z,100731.58
2019-04-07T09:55:13.016Z,100734.95
2019-04-07T09:58:14.920Z,100721.59
2019-04-07T10:01:11.057Z,100725.41
2019-04-07T10:04:07.800Z,100735.41
2019-04-07T10:07:00.374Z,100735.23
2019-04-07T10:10:07.653Z,100730.13
2019-04-07T10:12:53.002Z,100728.59
2019-04-07T10:15:51.492Z,100721.58
2019-04-07T10:22:48.363Z,100718.55
2019-04-07T10:26:00.456Z,100714.64
2019-04-07T10:29:04.587Z,100721.18
2019-04-07T10:32:16.952Z,100724.39
2019-04-07T10:35:23.582Z,100733.58
2019-04-07T10:38:28.081Z,100742.83
2019-04-07T11:14:26.848Z,100816.03
2019-04-07T11:17:27.347Z,100828.74
2019-04-07T11:20:29.940Z,100828.47
2019-04-07T11:23:17.859Z,100834.10
2019-04-07T11:26:18.050Z,100844.72
2019-04-07T11:29:14.445Z,100843.20
2019-04-07T11:31:59.245Z,100853.27
2019-04-07T11:34:38.993Z,100858.02
2019-04-07T11:37:38.381Z,100869.07
2019-04-07T11:40:41.539Z,100886.04
2019-04-07T11:43:27.918Z,100900.63
2019-04-07T11:46:23.205Z,100913.41
2019-04-07T11:49:31.266Z,100930.73
2019-04-07T11:52:14.795Z,100933.84
2019-04-07T11:55:08.593Z,100939.95
2019-04-07T11:58:19.963Z,100949.67
2019-04-07T12:01:14.789Z,100951.52
2019-04-07T12:04:29.513Z,100955.75
2019-04-07T12:07:32.219Z,100966.08
2019-04-07T12:10:25.749Z,100968.86
2019-04-07T12:13:22.495Z,100962.16
2019-04-07T12:16:29.517Z,100979.90
2019-04-07T12:19:26.226Z,100986.72
2019-04-07T12:22:14.337Z,100994.94
2019-04-07T12:25:12.507Z,100992.09
2019-04-07T12:28:06.887Z,100999.50
2019-04-07T12:30:54.600Z,100995.75
2019-04-07T12:33:40.405Z,101010.91
2019-04-07T12:36:40.890Z,101021.45
2019-04-07T12:39:53.328Z,101035.33
2019-04-07T12:42:41.740Z,101036.33
2019-04-07T12:45:25.506Z,101028.77
2019-04-07T12:48:30.687Z,101039.91
2019-04-07T12:51:29.357Z,101037.72
2019-04-07T12:54:25.676Z,101040.85
2019-04-07T12:57:20.628Z,101036.83
2019-04-07T13:00:22.725Z,101041.73
2019-04-07T13:03:15.257Z,101038.91
2019-04-07T13:05:59.101Z,101063.55
2019-04-07T13:09:04.010Z,101073.44
2019-04-07T13:12:09.437Z,101079.75
2019-04-07T13:15:24.864Z,101085.41
2019-04-07T13:18:15.433Z,101082.58
2019-04-07T13:21:13.374Z,101089.53
2019-04-07T13:24:30.201Z,101089.72
2019-04-07T13:27:17.247Z,101088.70
2019-04-07T13:30:04.051Z,101082.45
2019-04-07T13:33:01.934Z,101086.27
2019-04-07T13:35:50.853Z,101084.89
2019-04-07T13:38:38.802Z,101072.02
2019-04-07T13:41:42.571Z,101059.72
2019-04-07T13:44:32.007Z,101061.50
2019-04-07T13:47:23.645Z,101071.25
2019-04-07T13:50:31.961Z,101079.83
2019-04-07T13:53:31.545Z,101091.45
2019-04-07T13:56:34.321Z,101082.00
2019-04-07T13:59:31.044Z,101093.48
2019-04-07T14:02:42.225Z,101104.37
2019-04-07T14:05:46.931Z,101114.94
2019-04-07T14:08:52.028Z,101113.69
2019-04-07T14:12:10.560Z,101117.22
2019-04-07T14:15:19.359Z,101122.66
2019-04-07T14:18:14.377Z,101122.84
2019-04-07T14:21:16.802Z,101126.09
2019-04-07T14:24:14.280Z,101134.98
2019-04-07T14:27:10.017Z,101135.55
2019-04-07T14:30:06.278Z,101142.03
2019-04-07T14:33:18.701Z,101145.96
2019-04-07T14:36:15.105Z,101137.16
2019-04-07T14:39:15.277Z,101126.77
2019-04-07T14:42:06.700Z,101128.09
2019-04-07T14:45:05.607Z,101125.92
2019-04-07T14:48:03.225Z,101122.41
2019-04-07T14:50:53.875Z,101126.56
2019-04-07T14:53:49.469Z,101131.36
2019-04-07T14:56:48.812Z,101143.95
2019-04-07T14:59:54.546Z,101144.81
2019-04-07T15:02:32.218Z,101138.86
2019-04-07T15:05:23.215Z,101146.47
2019-04-07T15:08:15.250Z,101150.16
2019-04-07T15:10:56.234Z,101164.73
2019-04-07T15:13:36.431Z,101167.19
2019-04-07T15:16:13.484Z,101155.58
2019-04-07T15:18:51.179Z,101158.72
2019-04-07T15:21:28.795Z,101166.28
2019-04-07T15:24:08.486Z,101179.71
2019-04-07T15:26:48.923Z,101205.20
2019-04-07T15:29:25.379Z,101196.09
2019-04-07T15:32:03.422Z,101188.74
2019-04-07T15:34:42.540Z,101183.91
2019-04-07T15:37:22.649Z,101179.98
2019-04-07T15:40:00.962Z,101183.47
2019-04-07T15:42:42.905Z,101202.37
2019-04-07T15:45:20.073Z,101210.84
2019-04-07T15:48:00.277Z,101224.22
2019-04-07T15:50:36.381Z,101238.08
2019-04-07T15:53:16.568Z,101235.32
2019-04-07T15:56:01.981Z,101248.02
2019-04-07T15:58:33.729Z,101249.19
2019-04-07T16:01:11.802Z,101240.86
2019-04-07T16:03:53.737Z,101231.19
2019-04-07T16:06:30.092Z,101233.55
2019-04-07T16:09:13.961Z,101235.67
2019-04-07T16:11:49.569Z,101228.12
2019-04-07T16:14:29.822Z,101211.58
2019-04-07T16:17:09.551Z,101215.68
2019-04-07T16:19:50.851Z,101215.59
2019-04-07T16:22:25.735Z,101212.83
2019-04-07T16:25:05.667Z,101214.48
2019-04-07T16:27:43.476Z,101206.45
2019-04-07T16:30:21.591Z,101216.11
2019-04-07T16:33:02.543Z,101222.63
2019-04-07T16:35:39.918Z,101239.41
2019-04-07T16:38:17.461Z,101241.15
2019-04-07T16:40:55.915Z,101230.23
2019-04-07T16:43:34.930Z,101224.96
2019-04-07T16:46:16.983Z,101211.30
2019-04-07T16:48:51.924Z,101199.66
2019-04-07T16:51:31.652Z,101188.94
2019-04-07T16:54:08.741Z,101175.93
2019-04-07T16:56:50.838Z,101169.95
2019-04-07T16:59:27.530Z,101173.13
2019-04-07T17:02:05.809Z,101185.13
2019-04-07T17:04:43.521Z,101182.46
2019-04-07T17:07:24.490Z,101187.13
2019-04-07T17:10:02.761Z,101177.41
2019-04-07T17:12:42.733Z,101163.83
2019-04-07T17:15:21.167Z,101172.28
2019-04-07T17:17:58.958Z,101167.66
2019-04-07T17:20:37.740Z,101170.21
2019-04-07T17:23:18.566Z,101169.86
2019-04-07T17:25:54.796Z,101161.89
2019-04-07T17:28:34.453Z,101147.59
2019-04-07T17:31:11.974Z,101135.27
2019-04-07T17:33:49.621Z,101138.27
2019-04-07T17:36:27.191Z,101138.81
2019-04-07T17:39:24.846Z,101125.22
2019-04-07T17:42:02.270Z,101123.91
2019-04-07T17:45:20.383Z,101117.55
2019-04-07T17:48:13.995Z,101109.70
2019-04-07T17:51:10.128Z,101104.25
2019-04-07T17:54:06.072Z,101103.58
2019-04-07T17:57:06.709Z,101100.35
2019-04-07T18:00:07.814Z,101087.67
2019-04-07T18:03:02.298Z,101088.00
2019-04-07T18:06:07.123Z,101087.06
2019-04-07T18:09:12.205Z,101081.81
2019-04-07T18:12:14.075Z,101082.91
2019-04-07T18:15:10.649Z,101076.86
2019-04-07T18:18:10.142Z,101061.78
2019-04-07T18:21:04.377Z,101058.66
2019-04-07T18:24:03.512Z,101044.63
2019-04-07T18:26:58.406Z,101047.06
2019-04-07T18:29:47.900Z,101033.74
2019-04-07T18:32:53.552Z,101018.36
2019-04-07T18:36:03.308Z,101009.41
2019-04-07T18:38:56.329Z,100998.14
2019-04-07T18:42:06.975Z,100986.09
2019-04-07T18:44:49.815Z,100977.16
2019-04-07T18:47:45.149Z,100964.39
2019-04-07T18:50:41.284Z,100960.43
2019-04-07T18:53:45.387Z,100957.41
2019-04-07T18:56:33.003Z,100952.20
2019-04-07T18:59:21.450Z,100947.83
2019-04-07T19:02:19.335Z,100945.14
2019-04-07T19:05:07.056Z,100943.92
2019-04-07T19:08:05.948Z,100930.61
2019-04-07T19:11:10.372Z,100920.58
2019-04-07T19:13:47.980Z,100922.38
2019-04-07T19:16:47.114Z,100926.28
2019-04-07T19:19:46.847Z,100920.03
2019-04-07T19:22:41.518Z,100913.97
2019-04-07T19:25:53.076Z,100909.59
2019-04-07T19:28:38.315Z,100905.77
2019-04-07T19:31:34.767Z,100908.14
2019-04-07T19:34:33.354Z,100906.91
2019-04-07T19:37:33.258Z,100890.30
2019-04-07T19:40:25.542Z,100890.40
2019-04-07T19:43:23.130Z,100881.63
2019-04-07T19:46:27.154Z,100884.99
2019-04-07T19:49:22.857Z,100888.15
2019-04-07T19:52:16.239Z,100876.70
2019-04-07T19:55:03.964Z,100871.16
2019-04-07T19:57:57.942Z,100872.38
2019-04-07T20:00:55.812Z,100866.64
2019-04-07T20:03:47.313Z,100871.73
2019-04-07T20:06:44.056Z,100862.16
2019-04-07T20:09:44.115Z,100854.05
2019-04-07T20:12:34.632Z,100844.41
2019-04-07T20:15:45.957Z,100838.95
2019-04-07T20:18:45.981Z,100835.48
2019-04-07T20:21:58.197Z,100835.91
2019-04-07T20:24:53.235Z,100837.76
2019-04-07T20:28:02.319Z,100832.00
2019-04-07T20:30:53.712Z,100825.05
2019-04-07T20:34:06.358Z,100818.58
2019-04-07T20:37:02.826Z,100816.69
2019-04-07T20:40:03.558Z,100809.33
2019-04-07T20:42:58.398Z,100812.68
2019-04-07T20:45:50.056Z,100811.36
2019-04-07T20:48:46.118Z,100801.12
2019-04-07T20:51:53.364Z,100797.46
2019-04-07T20:54:56.336Z,100799.37
2019-04-07T20:57:56.456Z,100808.22
2019-04-07T21:01:10.083Z,100804.40
2019-04-07T21:04:01.909Z,100805.01
2019-04-07T21:07:13.578Z,100805.77
2019-04-07T21:10:09.856Z,100808.27
2019-04-07T21:13:03.394Z,100815.72
2019-04-07T21:15:56.028Z,100821.33
2019-04-07T21:19:05.522Z,100824.60
2019-04-07T21:22:12.465Z,100826.09
2019-04-07T21:25:13.926Z,100826.89
2019-04-07T21:28:10.535Z,100822.43
2019-04-07T21:31:07.382Z,100821.27
2019-04-07T21:33:59.667Z,100820.56
2019-04-07T21:36:53.757Z,100824.09
2019-04-07T21:39:47.076Z,100822.81
2019-04-07T21:42:45.880Z,100822.09
2019-04-07T21:45:45.877Z,100826.01
2019-04-07T21:48:37.086Z,100826.95
2019-04-07T21:51:29.298Z,100823.72
2019-04-07T21:54:34.627Z,100821.92
2019-04-07T21:57:24.067Z,100821.92
2019-04-07T22:00:27.052Z,100829.63
2019-04-07T22:03:22.234Z,100828.70
2019-04-07T22:06:37.159Z,100840.13
2019-04-07T22:09:23.125Z,100848.48
2019-04-07T22:12:02.173Z,100842.88
2019-04-07T22:14:42.108Z,100845.06
2019-04-07T22:17:19.589Z,100848.48
2019-04-07T22:19:58.533Z,100854.83
2019-04-07T22:22:35.831Z,100859.06
2019-04-07T22:25:14.102Z,100862.79
2019-04-07T22:27:54.493Z,100873.02
2019-04-07T22:30:33.950Z,100871.57
2019-04-07T22:33:12.410Z,100877.06
2019-04-07T22:35:49.713Z,100879.05
2019-04-07T22:38:27.433Z,100882.58
2019-04-07T22:41:06.713Z,100884.77
2019-04-07T22:43:47.805Z,100879.95
2019-04-07T22:46:27.117Z,100884.19
2019-04-07T22:49:02.979Z,100887.36
2019-04-07T22:51:44.732Z,100880.98
2019-04-07T22:54:20.649Z,100879.55
2019-04-07T22:56:58.179Z,100879.70
2019-04-07T22:59:36.418Z,100881.34
2019-04-07T23:02:13.991Z,100879.44
2019-04-07T23:04:52.468Z,100881.19
2019-04-07T23:07:29.746Z,100886.77
2019-04-07T23:10:07.939Z,100890.38
2019-04-07T23:12:45.297Z,100892.73
2019-04-07T23:15:35.914Z,100889.95
2019-04-07T23:18:03.217Z,100890.25
2019-04-07T23:20:41.720Z,100886.97
2019-04-07T23:23:19.027Z,100881.81
2019-04-07T23:25:57.774Z,100881.45
2019-04-07T23:28:34.792Z,100888.47
2019-04-07T23:31:13.839Z,100889.73
2019-04-07T23:57:02.393Z,100912.70
2019-04-07T23:59:40.614Z,100914.90
